Time;durP1;ratioP1;P1;durP2;ratioP2;P2;SDS_P1;SDS_P2;PMS_P1;PMS_P2;Temp;Humidity;BMP_temperature;BMP_pressure;BME280_temperature;BME280_humidity;BME280_pressure;Samples;Min_cycle;Max_cycle;Signal;HPM_P1;HPM_P2
2022/01/27 03:46:48;;;;;;;80.55;36.92;;;4.70;96.20;;;;;;5081978;24;20059;-82
2022/01/27 03:49:13;;;;;;;81.07;36.67;;;4.70;96.20;;;;;;4763278;30;20032;-82
2022/01/27 03:51:39;;;;;;;79.82;35.22;;;4.70;96.20;;;;;;4738260;30;20035;-82
2022/01/27 03:54:05;;;;;;;83.30;37.40;;;4.80;96.10;;;;;;4737362;30;20048;-82
2022/01/27 03:56:31;;;;;;;81.70;34.05;;;4.80;96.10;;;;;;4743609;30;20040;-82
2022/01/27 03:58:57;;;;;;;74.97;34.70;;;4.80;96.10;;;;;;4762920;30;20032;-82
2022/01/27 04:01:23;;;;;;;78.63;35.35;;;4.80;96.10;;;;;;4736817;30;20212;-82
2022/01/27 04:03:48;;;;;;;72.72;32.50;;;4.70;96.20;;;;;;4744590;30;20252;-82
2022/01/27 04:06:20;;;;;;;77.85;34.70;;;4.70;96.20;;;;;;4731331;30;20043;-82
2022/01/27 04:08:46;;;;;;;75.72;33.92;;;4.80;96.20;;;;;;4722476;30;20261;-82
2022/01/27 04:11:12;;;;;;;69.75;31.67;;;4.80;96.10;;;;;;4780439;30;20075;-82
2022/01/27 04:13:38;;;;;;;81.35;34.97;;;4.80;96.10;;;;;;4748931;30;20036;-82
2022/01/27 04:16:04;;;;;;;65.63;31.65;;;4.80;96.20;;;;;;4737924;30;20332;-82
2022/01/27 04:18:30;;;;;;;73.15;33.58;;;4.80;95.70;;;;;;4779470;30;20227;-81
2022/01/27 04:20:56;;;;;;;71.55;33.28;;;4.80;95.80;;;;;;4763627;30;20036;-82
2022/01/27 04:23:22;;;;;;;78.03;33.42;;;4.80;95.90;;;;;;4774996;30;20054;-82
2022/01/27 04:25:48;;;;;;;104.35;41.03;;;4.90;95.90;;;;;;4781296;30;20077;-82
2022/01/27 04:28:20;;;;;;;87.25;37.45;;;4.90;95.80;;;;;;4781231;30;20036;-82
2022/01/27 04:30:47;;;;;;;116.35;47.63;;;5.00;95.60;;;;;;4752417;30;20043;-81
2022/01/27 04:33:13;;;;;;;80.60;35.17;;;4.90;95.50;;;;;;4751685;30;20050;-82
2022/01/27 04:35:45;;;;;;;68.47;31.17;;;5.00;95.60;;;;;;4737124;30;20328;-82
2022/01/27 04:40:48;;;;;;;91.47;42.53;;;4.90;95.40;;;;;;4748477;30;20036;-82
2022/01/27 04:48:39;;;;;;;62.13;28.85;;;4.80;95.10;;;;;;4767315;30;20052;-82
2022/01/27 04:51:12;;;;;;;63.60;29.70;;;4.80;95.10;;;;;;4752071;30;20070;-82
2022/01/27 04:56:26;;;;;;;68.88;30.38;;;4.80;95.00;;;;;;4726790;30;20072;-82
2022/01/27 04:58:57;;;;;;;61.75;29.88;;;4.80;95.10;;;;;;4712262;30;20198;-81
2022/01/27 05:01:30;;;;;;;60.72;26.92;;;4.90;95.00;;;;;;4712459;30;20045;-81
2022/01/27 05:04:19;;;;;;;68.03;30.17;;;4.90;94.80;;;;;;4712577;30;20120;-81
2022/01/27 05:06:42;;;;;;;58.25;27.58;;;4.90;94.80;;;;;;4719309;30;20244;-81
2022/01/27 05:09:09;;;;;;;63.47;27.73;;;5.00;94.90;;;;;;4712764;30;20041;-81
2022/01/27 05:11:38;;;;;;;66.17;28.60;;;5.00;94.60;;;;;;4698254;30;20037;-81
2022/01/27 05:16:30;;;;;;;63.88;27.67;;;4.90;94.40;;;;;;4726975;30;20181;-82
2022/01/27 05:18:56;;;;;;;62.05;28.40;;;4.80;94.40;;;;;;4726888;30;20468;-82
2022/01/27 05:21:22;;;;;;;59.15;27.05;;;4.90;94.50;;;;;;4712460;30;20033;-81
2022/01/27 05:23:48;;;;;;;61.33;28.20;;;4.90;94.30;;;;;;4712353;30;20056;-81
2022/01/27 05:26:13;;;;;;;65.78;27.80;;;4.90;94.10;;;;;;4698168;30;20075;-81
2022/01/27 05:28:39;;;;;;;60.90;25.73;;;4.80;93.90;;;;;;4728740;30;20053;-81
2022/01/27 05:31:05;;;;;;;60.30;26.77;;;4.70;94.00;;;;;;4711495;30;20041;-82
2022/01/27 05:33:32;;;;;;;47.30;25.05;;;4.80;94.30;;;;;;4739713;30;20128;-81
2022/01/27 05:35:59;;;;;;;59.78;28.92;;;4.70;94.20;;;;;;4779725;30;20327;-81
2022/01/27 05:38:25;;;;;;;59.92;27.98;;;4.60;94.30;;;;;;4750526;30;20047;-81
2022/01/27 05:40:51;;;;;;;56.15;26.83;;;4.60;94.20;;;;;;4779776;30;20038;-82
2022/01/27 05:43:17;;;;;;;57.40;27.90;;;4.70;94.50;;;;;;4765092;30;20231;-82
2022/01/27 05:45:42;;;;;;;65.03;27.98;;;4.80;94.40;;;;;;4779665;30;20056;-82
2022/01/27 05:48:08;;;;;;;57.45;27.23;;;4.90;94.30;;;;;;4766906;30;20078;-82
2022/01/27 05:50:34;;;;;;;61.30;28.02;;;4.70;94.00;;;;;;4744320;30;20251;-82
2022/01/27 05:53:01;;;;;;;55.70;26.83;;;4.70;94.00;;;;;;4764823;30;20216;-82
2022/01/27 05:55:27;;;;;;;60.63;28.75;;;4.70;94.00;;;;;;4761220;30;20107;-81
2022/01/27 05:57:52;;;;;;;59.05;28.55;;;4.70;94.10;;;;;;4735205;30;20031;-81
2022/01/27 06:00:19;;;;;;;57.35;26.85;;;4.80;94.20;;;;;;4750784;30;20089;-82
2022/01/27 06:02:45;;;;;;;58.50;27.38;;;4.80;94.00;;;;;;4749144;30;20030;-82
2022/01/27 06:05:11;;;;;;;59.17;25.23;;;4.80;93.90;;;;;;4784077;30;20031;-80
2022/01/27 06:07:37;;;;;;;60.67;27.92;;;4.70;93.70;;;;;;4776569;30;20032;-81
2022/01/27 06:10:03;;;;;;;56.45;27.50;;;4.70;93.90;;;;;;4789016;30;20047;-82
2022/01/27 06:12:29;;;;;;;63.07;27.40;;;4.70;93.70;;;;;;4768612;30;20031;-82
2022/01/27 06:14:54;;;;;;;62.45;29.02;;;4.70;93.50;;;;;;4765448;30;20351;-81
2022/01/27 06:17:20;;;;;;;56.80;28.65;;;4.70;93.80;;;;;;4749561;30;20061;-81
2022/01/27 06:19:47;;;;;;;66.88;29.95;;;4.60;93.60;;;;;;4735049;30;20046;-80
2022/01/27 06:22:14;;;;;;;63.42;28.13;;;4.50;93.80;;;;;;4747235;30;20085;-80
2022/01/27 06:24:41;;;;;;;58.35;27.95;;;4.40;93.90;;;;;;4767874;30;20204;-81
2022/01/27 06:27:07;;;;;;;63.40;28.52;;;4.40;94.00;;;;;;4764325;30;20047;-81
2022/01/27 06:29:34;;;;;;;58.77;29.50;;;4.40;94.30;;;;;;4780539;30;20032;-81
2022/01/27 06:32:00;;;;;;;67.93;30.30;;;4.30;94.20;;;;;;4779415;30;20043;-82
2022/01/27 06:34:26;;;;;;;65.15;30.75;;;4.30;94.40;;;;;;4747609;30;20040;-81
2022/01/27 06:36:52;;;;;;;71.97;30.67;;;4.40;94.40;;;;;;4762298;30;20130;-81
2022/01/27 06:39:17;;;;;;;64.25;28.67;;;4.30;94.20;;;;;;4764232;30;20109;-82
2022/01/27 06:41:44;;;;;;;67.80;30.08;;;4.30;94.20;;;;;;4764751;30;20367;-81
2022/01/27 06:44:11;;;;;;;67.25;32.35;;;4.30;94.30;;;;;;4761736;30;20036;-83
2022/01/27 06:46:37;;;;;;;65.57;30.58;;;4.30;94.30;;;;;;4740049;30;20260;-81
2022/01/27 06:49:07;;;;;;;70.78;31.50;;;4.30;94.40;;;;;;4779167;30;20040;-81
2022/01/27 06:51:33;;;;;;;67.97;29.80;;;4.20;94.30;;;;;;4789010;30;20070;-81
2022/01/27 06:53:59;;;;;;;66.32;32.28;;;4.30;94.40;;;;;;4754887;30;20035;-82
2022/01/27 06:56:26;;;;;;;71.10;31.20;;;4.20;94.40;;;;;;4765089;30;20027;-81
2022/01/27 06:58:52;;;;;;;69.72;31.70;;;4.20;94.40;;;;;;4763295;30;20028;-81
2022/01/27 07:01:18;;;;;;;66.80;31.25;;;4.10;94.50;;;;;;4763313;30;20055;-81
2022/01/27 07:03:44;;;;;;;82.03;33.00;;;4.10;94.60;;;;;;4764361;30;20078;-82
2022/01/27 07:06:12;;;;;;;70.63;33.67;;;4.10;94.70;;;;;;4769236;30;20241;-81
2022/01/27 07:08:38;;;;;;;71.40;32.33;;;4.10;94.70;;;;;;4754648;30;20040;-82
2022/01/27 07:11:04;;;;;;;73.30;33.80;;;4.10;94.50;;;;;;4766250;30;20082;-82
2022/01/27 07:13:30;;;;;;;70.90;33.28;;;4.20;94.60;;;;;;4765859;30;20040;-82
2022/01/27 07:15:56;;;;;;;73.88;35.42;;;4.20;94.50;;;;;;4750297;30;20031;-82
2022/01/27 07:18:22;;;;;;;73.75;34.72;;;4.30;94.50;;;;;;4765634;30;20036;-81
2022/01/27 07:20:48;;;;;;;75.05;35.22;;;4.30;94.50;;;;;;4748849;30;20032;-82
2022/01/27 07:23:14;;;;;;;80.80;34.60;;;4.20;94.50;;;;;;4761173;30;20028;-82
2022/01/27 07:25:40;;;;;;;79.13;36.55;;;4.30;94.50;;;;;;4765469;30;20262;-82
2022/01/27 07:28:06;;;;;;;78.55;37.38;;;4.30;94.50;;;;;;4747153;30;20212;-82
2022/01/27 07:30:32;;;;;;;79.65;35.42;;;4.40;94.30;;;;;;4762475;30;20110;-82
2022/01/27 07:32:57;;;;;;;79.78;36.20;;;4.50;94.10;;;;;;4764465;30;20047;-82
2022/01/27 07:35:23;;;;;;;80.40;37.25;;;4.50;94.20;;;;;;4747752;30;20039;-81
2022/01/27 07:37:49;;;;;;;86.30;36.45;;;4.60;93.80;;;;;;4764310;30;20279;-82
2022/01/27 07:40:15;;;;;;;81.25;37.05;;;4.60;94.00;;;;;;4749220;30;20027;-82
2022/01/27 07:42:41;;;;;;;89.55;39.15;;;4.70;93.90;;;;;;4751111;30;20046;-81
2022/01/27 07:45:10;;;;;;;77.37;37.07;;;4.70;93.50;;;;;;4739124;30;20239;-82
2022/01/27 07:47:36;;;;;;;82.15;36.97;;;4.70;93.60;;;;;;4779872;30;20063;-82
2022/01/27 07:50:02;;;;;;;83.15;36.22;;;4.80;93.40;;;;;;4753732;30;20099;-81
2022/01/27 07:52:28;;;;;;;76.95;37.60;;;4.70;93.50;;;;;;4768847;30;20036;-81
2022/01/27 07:54:54;;;;;;;78.43;38.33;;;4.80;93.40;;;;;;4750098;30;20054;-82
2022/01/27 07:57:19;;;;;;;85.18;38.45;;;4.80;93.40;;;;;;4766198;30;20032;-82
2022/01/27 07:59:45;;;;;;;73.82;33.67;;;4.90;93.40;;;;;;4765726;30;20376;-82
2022/01/27 08:02:11;;;;;;;83.93;39.20;;;4.90;93.10;;;;;;4765989;30;20130;-83
2022/01/27 08:04:37;;;;;;;85.55;40.03;;;4.90;93.20;;;;;;4780766;30;20243;-81
2022/01/27 08:07:03;;;;;;;89.85;39.33;;;5.00;93.00;;;;;;4736659;30;20107;-82
2022/01/27 08:09:29;;;;;;;83.22;39.10;;;5.00;93.00;;;;;;4751403;30;20350;-81
2022/01/27 08:11:55;;;;;;;82.53;37.95;;;5.00;92.70;;;;;;4750340;30;20038;-81
2022/01/27 08:14:21;;;;;;;78.18;36.97;;;5.00;92.90;;;;;;4779875;30;20062;-81
2022/01/27 08:16:47;;;;;;;86.90;39.03;;;5.00;92.60;;;;;;4765191;30;20039;-81
2022/01/27 08:19:13;;;;;;;78.88;37.70;;;5.00;92.40;;;;;;4748395;30;20029;-81
2022/01/27 08:21:39;;;;;;;75.07;34.33;;;5.00;92.10;;;;;;4765613;30;20035;-81
2022/01/27 08:24:06;;;;;;;76.20;37.13;;;5.10;91.90;;;;;;4760198;30;20091;-81
2022/01/27 08:31:57;;;;;;;71.22;34.65;;;5.20;91.20;;;;;;4754218;30;20046;-82
2022/01/27 08:34:34;;;;;;;77.40;36.53;;;5.20;91.00;;;;;;4754131;30;20093;-82
2022/01/27 08:37:12;;;;;;;77.18;37.22;;;5.30;91.00;;;;;;4765673;30;20379;-82
2022/01/27 08:39:39;;;;;;;70.53;34.80;;;5.30;90.90;;;;;;4780413;30;20103;-82
2022/01/27 08:42:06;;;;;;;69.15;31.15;;;5.40;90.90;;;;;;4765627;30;20323;-81
2022/01/27 08:44:32;;;;;;;;;;;5.40;90.30;;;;;;4751339;30;20338;-82
2022/01/27 08:46:58;;;;;;;75.20;33.25;;;5.50;90.20;;;;;;4780122;30;19925;-82
2022/01/27 08:49:26;;;;;;;71.80;32.17;;;5.50;90.20;;;;;;4750300;30;20054;-82
2022/01/27 08:51:53;;;;;;;66.50;31.08;;;5.60;90.10;;;;;;4780374;30;20043;-82
2022/01/27 08:54:19;;;;;;;66.53;33.63;;;5.70;89.40;;;;;;4779905;30;20074;-82
2022/01/27 08:56:45;;;;;;;64.70;29.80;;;5.80;89.50;;;;;;4750747;30;20055;-81
2022/01/27 08:59:11;;;;;;;76.65;33.85;;;5.90;87.60;;;;;;4765450;30;20391;-82
2022/01/27 09:01:38;;;;;;;72.22;32.28;;;5.90;88.20;;;;;;4765549;30;20036;-82
2022/01/27 09:04:04;;;;;;;71.32;33.08;;;6.00;87.20;;;;;;4750839;30;20118;-82
2022/01/27 09:06:30;;;;;;;62.63;30.37;;;6.10;87.50;;;;;;4763216;30;20039;-81
2022/01/27 09:08:58;;;;;;;61.63;30.02;;;6.20;84.60;;;;;;4750193;30;20031;-82
2022/01/27 09:11:24;;;;;;;59.60;29.45;;;6.20;84.60;;;;;;4762700;30;20085;-82
2022/01/27 09:13:52;;;;;;;54.58;27.30;;;6.30;84.00;;;;;;4750406;30;20040;-82
2022/01/27 09:16:18;;;;;;;60.92;28.67;;;6.40;82.80;;;;;;4762226;30;20036;-82
2022/01/27 09:18:44;;;;;;;56.00;27.85;;;6.50;82.20;;;;;;4764951;30;20227;-82
2022/01/27 09:21:17;;;;;;;62.63;29.17;;;6.60;81.80;;;;;;4735613;30;20044;-82
2022/01/27 09:23:43;;;;;;;55.47;27.40;;;6.70;80.40;;;;;;4765001;30;20035;-82
2022/01/27 09:26:26;;;;;;;56.58;28.90;;;6.80;81.30;;;;;;4755352;30;20073;-82
2022/01/27 09:28:52;;;;;;;56.80;28.83;;;6.90;79.80;;;;;;4752428;30;20043;-82
2022/01/27 09:31:18;;;;;;;58.88;29.35;;;7.00;79.40;;;;;;4761856;30;20251;-82
2022/01/27 09:33:44;;;;;;;55.53;28.13;;;7.10;78.90;;;;;;4745708;30;20071;-81
2022/01/27 09:36:12;;;;;;;56.10;28.48;;;7.20;78.70;;;;;;4764666;30;20055;-82
2022/01/27 09:38:38;;;;;;;59.10;27.83;;;7.40;78.00;;;;;;4779755;30;20036;-82
2022/01/27 09:41:07;;;;;;;55.80;26.77;;;7.50;76.50;;;;;;4764675;30;20107;-82
2022/01/27 09:43:34;;;;;;;52.33;25.42;;;7.50;76.00;;;;;;4761663;30;20090;-82
2022/01/27 09:46:07;;;;;;;56.53;27.30;;;7.50;75.30;;;;;;4777051;30;20067;-82
2022/01/27 09:48:40;;;;;;;50.58;26.05;;;7.50;74.50;;;;;;4764674;30;20039;-82
2022/01/27 09:53:53;;;;;;;50.15;25.00;;;7.60;73.50;;;;;;4773819;30;20043;-82
2022/01/27 09:56:20;;;;;;;49.97;24.15;;;7.70;74.10;;;;;;4778639;30;20032;-82
2022/01/27 09:58:46;;;;;;;47.65;23.23;;;7.70;73.00;;;;;;4733238;30;20396;-82
2022/01/27 10:01:11;;;;;;;45.42;23.10;;;7.80;73.10;;;;;;4778147;30;20042;-81
2022/01/27 10:03:59;;;;;;;52.00;24.90;;;7.80;71.30;;;;;;4779231;30;20039;-82
2022/01/27 10:06:29;;;;;;;44.58;24.13;;;7.70;72.40;;;;;;4763830;30;20050;-82
2022/01/27 10:09:28;;;;;;;47.45;24.05;;;7.90;72.70;;;;;;4778390;30;20077;-82
2022/01/27 10:11:53;;;;;;;44.72;20.55;;;8.00;70.90;;;;;;4763692;30;20331;-81
2022/01/27 10:14:21;;;;;;;48.60;22.88;;;8.00;69.30;;;;;;4734914;30;20032;-82
2022/01/27 10:16:49;;;;;;;44.15;23.52;;;8.00;69.60;;;;;;4778818;30;20031;-82
2022/01/27 10:19:16;;;;;;;46.33;22.70;;;8.00;69.70;;;;;;4778913;30;20027;-82
2022/01/27 10:21:43;;;;;;;41.72;22.25;;;8.00;68.90;;;;;;4763723;30;20086;-82
2022/01/27 10:24:28;;;;;;;38.03;20.35;;;8.10;69.20;;;;;;4793020;30;20032;-82
2022/01/27 10:32:55;;;;;;;37.00;20.10;;;8.20;67.10;;;;;;4778686;30;20338;-82
2022/01/27 10:35:26;;;;;;;40.17;19.50;;;8.20;67.60;;;;;;4778433;30;20035;-82
2022/01/27 10:37:53;;;;;;;35.42;18.23;;;8.40;66.40;;;;;;4778466;30;20038;-82
2022/01/27 10:40:32;;;;;;;35.97;18.05;;;8.40;65.20;;;;;;4777605;30;20319;-82
2022/01/27 10:43:14;;;;;;;32.47;18.63;;;8.50;65.30;;;;;;4777902;30;20031;-82
2022/01/27 10:46:12;;;;;;;36.55;18.33;;;8.60;64.70;;;;;;4774864;30;20370;-82
2022/01/27 10:48:51;;;;;;;37.55;16.83;;;8.50;63.70;;;;;;4759703;30;20081;-82
2022/01/27 10:51:35;;;;;;;37.70;18.40;;;8.50;62.90;;;;;;4762771;30;20223;-81
2022/01/27 10:54:16;;;;;;;32.58;16.92;;;8.50;63.90;;;;;;4760309;30;20043;-81
2022/01/27 10:56:42;;;;;;;34.10;18.23;;;8.40;63.20;;;;;;4762553;30;20019;-81
2022/01/27 10:59:16;;;;;;;36.95;18.45;;;8.50;63.60;;;;;;4748319;30;20036;-81
2022/01/27 11:01:44;;;;;;;33.70;18.48;;;8.60;63.50;;;;;;4778947;30;20036;-82
2022/01/27 11:04:14;;;;;;;37.60;18.30;;;8.60;63.50;;;;;;4763002;30;20102;-81
2022/01/27 11:07:03;;;;;;;38.95;16.95;;;8.70;63.10;;;;;;4778841;30;20026;-82
2022/01/27 11:09:36;;;;;;;28.95;15.63;;;8.70;61.90;;;;;;4710457;30;20303;-82
2022/01/27 11:12:07;;;;;;;32.13;17.27;;;8.70;62.20;;;;;;4696785;30;20078;-82
2022/01/27 11:14:36;;;;;;;33.38;17.23;;;8.70;61.90;;;;;;4717784;30;20055;-83
2022/01/27 11:17:06;;;;;;;32.63;15.60;;;8.80;61.60;;;;;;4726240;30;20037;-82
2022/01/27 11:22:07;;;;;;;27.23;15.63;;;8.80;61.70;;;;;;4741314;30;20100;-82
2022/01/27 11:25:08;;;;;;;27.38;15.40;;;8.80;61.00;;;;;;4706198;30;20045;-82
2022/01/27 11:27:37;;;;;;;34.30;18.13;;;8.90;60.60;;;;;;4726895;30;20299;-82
2022/01/27 11:30:38;;;;;;;32.58;16.63;;;8.90;60.40;;;;;;4724786;30;20103;-82
2022/01/27 11:33:10;;;;;;;29.85;16.52;;;8.90;60.50;;;;;;4694743;30;20049;-83
2022/01/27 11:35:39;;;;;;;30.08;15.98;;;8.90;60.90;;;;;;4687616;30;20073;-82
2022/01/27 11:38:08;;;;;;;31.80;15.88;;;8.90;60.60;;;;;;4700395;30;20033;-82
2022/01/27 11:40:39;;;;;;;35.55;16.58;;;8.90;60.20;;;;;;4694682;30;20116;-83
2022/01/27 11:43:07;;;;;;;30.10;17.02;;;9.00;60.40;;;;;;4675423;30;20046;-82
2022/01/27 11:45:44;;;;;;;32.90;16.38;;;9.00;60.40;;;;;;4708379;30;20058;-82
2022/01/27 11:48:13;;;;;;;33.17;15.93;;;9.00;59.10;;;;;;4725364;30;20056;-82
2022/01/27 11:50:48;;;;;;;29.60;15.98;;;9.00;59.90;;;;;;4712141;30;20040;-83
2022/01/27 11:53:39;;;;;;;27.23;14.50;;;9.00;59.80;;;;;;4697523;30;20065;-83
2022/01/27 11:56:27;;;;;;;31.73;16.48;;;9.00;60.60;;;;;;4720013;30;20044;-83
2022/01/27 11:58:58;;;;;;;31.60;15.38;;;9.10;59.80;;;;;;4680096;30;20357;-82
2022/01/27 12:01:30;;;;;;;28.20;15.93;;;9.10;59.50;;;;;;4691198;30;20399;-82
2022/01/27 12:04:05;;;;;;;29.70;16.10;;;9.20;59.10;;;;;;4682380;30;20072;-83
2022/01/27 12:06:32;;;;;;;29.88;15.43;;;9.30;60.10;;;;;;4678768;30;20069;-83
2022/01/27 12:09:19;;;;;;;30.10;16.30;;;9.40;59.90;;;;;;4688943;30;20038;-82
2022/01/27 12:12:00;;;;;;;33.00;17.25;;;9.40;59.40;;;;;;4692187;30;20056;-82
2022/01/27 12:14:36;;;;;;;27.13;15.77;;;9.50;60.00;;;;;;4701437;30;20256;-83
2022/01/27 12:17:08;;;;;;;30.17;16.20;;;9.50;59.20;;;;;;4688109;30;20113;-83
2022/01/27 12:19:52;;;;;;;30.95;16.10;;;9.50;58.70;;;;;;4706709;30;20096;-82
2022/01/27 12:22:20;;;;;;;26.52;15.30;;;9.50;58.80;;;;;;4706600;30;20054;-83
2022/01/27 12:24:57;;;;;;;25.23;13.55;;;9.50;58.50;;;;;;4693559;30;20034;-82
2022/01/27 12:27:26;;;;;;;29.70;14.65;;;9.40;57.50;;;;;;4709657;30;20109;-83
2022/01/27 12:29:53;;;;;;;27.65;14.57;;;9.40;58.40;;;;;;4695231;30;20201;-82
2022/01/27 12:32:24;;;;;;;23.08;13.20;;;9.40;58.50;;;;;;4695124;30;20073;-83
2022/01/27 12:34:52;;;;;;;32.95;15.02;;;9.40;56.90;;;;;;4697966;30;20044;-83
2022/01/27 12:37:24;;;;;;;27.63;13.07;;;9.40;57.00;;;;;;4765809;30;20044;-83
2022/01/27 12:39:54;;;;;;;27.05;13.70;;;9.40;57.40;;;;;;4765655;30;20040;-83
2022/01/27 12:42:20;;;;;;;26.73;14.43;;;9.40;56.80;;;;;;4765620;30;20043;-83
2022/01/27 12:44:58;;;;;;;25.92;13.77;;;9.30;57.60;;;;;;4751188;30;20032;-83
2022/01/27 12:47:26;;;;;;;22.13;12.02;;;9.40;56.50;;;;;;4776412;30;20072;-83
2022/01/27 12:50:06;;;;;;;33.10;15.82;;;9.50;56.60;;;;;;4736603;30;20044;-83
2022/01/27 12:52:38;;;;;;;27.15;14.00;;;9.50;57.00;;;;;;4765658;30;20058;-82
2022/01/27 12:55:05;;;;;;;25.23;13.02;;;9.60;56.70;;;;;;4781568;30;20107;-84
2022/01/27 12:57:32;;;;;;;29.50;13.77;;;9.50;56.60;;;;;;4750795;30;20410;-83
2022/01/27 12:59:59;;;;;;;24.27;12.80;;;9.50;57.20;;;;;;4751191;30;20039;-83
2022/01/27 13:02:27;;;;;;;22.88;12.02;;;9.50;57.00;;;;;;4780256;30;20088;-83
2022/01/27 13:04:55;;;;;;;26.38;13.65;;;9.60;55.90;;;;;;4781138;30;20243;-83
2022/01/27 13:07:22;;;;;;;23.15;12.35;;;9.60;55.80;;;;;;4765224;30;20044;-82
2022/01/27 13:10:01;;;;;;;27.10;13.48;;;9.60;56.20;;;;;;4780639;30;20239;-83
2022/01/27 13:12:33;;;;;;;22.40;12.80;;;9.60;55.20;;;;;;4780015;30;20051;-83
2022/01/27 13:15:11;;;;;;;24.77;11.68;;;9.70;55.90;;;;;;4779385;30;20035;-83
2022/01/27 13:20:22;;;;;;;23.65;12.40;;;9.90;55.70;;;;;;4762513;30;20117;-83
2022/01/27 13:22:51;;;;;;;26.55;12.50;;;10.00;55.30;;;;;;4775232;30;20031;-83
2022/01/27 13:25:19;;;;;;;20.45;12.45;;;10.20;55.20;;;;;;4780683;30;20069;-82
2022/01/27 13:28:00;;;;;;;26.23;13.25;;;10.30;54.70;;;;;;4750134;30;20028;-83
2022/01/27 13:30:26;;;;;;;26.45;13.05;;;10.20;54.80;;;;;;4759256;30;20086;-82
2022/01/27 13:32:52;;;;;;;23.83;13.05;;;10.30;55.00;;;;;;4764347;30;20023;-82
2022/01/27 13:35:18;;;;;;;30.33;13.90;;;10.30;54.20;;;;;;4764560;30;20031;-82
2022/01/27 13:37:44;;;;;;;25.83;14.02;;;10.30;54.60;;;;;;4764981;30;20032;-82
2022/01/27 13:42:56;;;;;;;24.30;13.52;;;10.30;55.40;;;;;;4768970;30;20040;-82
2022/01/27 13:45:23;;;;;;;24.35;12.75;;;10.20;55.00;;;;;;4764754;30;20081;-82
2022/01/27 13:47:49;;;;;;;22.30;12.68;;;10.20;55.10;;;;;;4764259;30;20039;-83
2022/01/27 13:50:17;;;;;;;30.65;12.23;;;10.30;54.60;;;;;;4764504;30;20039;-82
2022/01/27 13:52:50;;;;;;;22.80;11.88;;;10.30;54.70;;;;;;4764023;30;20043;-83
2022/01/27 13:55:20;;;;;;;19.45;11.35;;;10.20;54.20;;;;;;4777539;30;20038;-83
2022/01/27 13:57:54;;;;;;;23.60;11.68;;;10.20;54.70;;;;;;4764681;30;20070;-82
2022/01/27 14:00:36;;;;;;;23.00;11.95;;;10.10;54.60;;;;;;4762381;30;20054;-82
2022/01/27 14:03:10;;;;;;;27.85;12.55;;;10.10;54.50;;;;;;4773742;30;20035;-82
2022/01/27 14:05:36;;;;;;;22.90;11.35;;;10.00;54.30;;;;;;4773322;30;20042;-82
2022/01/27 14:08:02;;;;;;;24.33;11.68;;;10.00;54.20;;;;;;4749181;30;20052;-82
2022/01/27 14:10:38;;;;;;;24.52;11.32;;;9.90;54.70;;;;;;4748795;30;20036;-82
2022/01/27 14:13:09;;;;;;;26.13;13.82;;;9.90;54.50;;;;;;4776750;30;20044;-82
2022/01/27 14:15:47;;;;;;;24.38;13.70;;;9.90;54.60;;;;;;4774189;30;20216;-83
2022/01/27 14:18:14;;;;;;;20.95;11.48;;;10.00;55.00;;;;;;4778274;30;20043;-83
2022/01/27 14:21:09;;;;;;;26.45;13.60;;;10.00;55.10;;;;;;4777827;30;20035;-83
2022/01/27 14:29:19;;;;;;;26.80;12.27;;;9.90;54.50;;;;;;4692440;30;20076;-82
2022/01/27 14:31:47;;;;;;;31.30;14.32;;;9.80;54.80;;;;;;4687127;30;20029;-82
2022/01/27 14:34:29;;;;;;;22.80;13.10;;;9.80;55.40;;;;;;4692255;30;20050;-82
2022/01/27 14:36:55;;;;;;;27.35;14.30;;;9.70;55.50;;;;;;4692503;30;20060;-82
2022/01/27 14:39:21;;;;;;;24.85;13.90;;;9.70;55.10;;;;;;4663830;30;20042;-82
2022/01/27 14:41:47;;;;;;;36.55;16.88;;;9.60;55.90;;;;;;4675863;30;20281;-82
2022/01/27 14:44:13;;;;;;;40.05;17.38;;;9.50;56.10;;;;;;4691726;30;20033;-82
2022/01/27 14:46:42;;;;;;;26.05;14.50;;;9.50;56.60;;;;;;4678756;30;20133;-82
2022/01/27 14:49:11;;;;;;;28.63;14.68;;;9.40;56.50;;;;;;4701639;30;20084;-82
2022/01/27 14:51:38;;;;;;;29.85;14.63;;;9.30;57.10;;;;;;4712244;30;20074;-83
2022/01/27 14:54:04;;;;;;;27.70;14.98;;;9.10;57.40;;;;;;4692678;30;20057;-82
2022/01/27 14:56:30;;;;;;;31.88;14.35;;;9.10;58.10;;;;;;4692114;30;20045;-83
2022/01/27 14:58:56;;;;;;;30.73;14.65;;;9.00;58.50;;;;;;4697141;30;20400;-83
2022/01/27 15:01:24;;;;;;;27.48;15.55;;;8.90;58.70;;;;;;4747815;30;20034;-83
2022/01/27 15:03:50;;;;;;;33.25;15.10;;;8.90;59.20;;;;;;4777947;30;20063;-83
2022/01/27 15:06:16;;;;;;;27.65;14.85;;;8.80;59.30;;;;;;4763552;30;20261;-83
2022/01/27 15:08:43;;;;;;;29.77;15.10;;;8.70;59.60;;;;;;4760598;30;20119;-82
2022/01/27 15:11:09;;;;;;;40.50;14.77;;;8.70;59.50;;;;;;4763124;30;20039;-82
2022/01/27 15:13:42;;;;;;;26.07;13.23;;;8.60;59.80;;;;;;4745850;30;20240;-83
2022/01/27 15:21:46;;;;;;;29.40;14.35;;;8.50;59.50;;;;;;4741609;30;20036;-83
2022/01/27 15:24:11;;;;;;;24.70;13.18;;;8.50;59.00;;;;;;4726956;30;20368;-82
2022/01/27 15:26:37;;;;;;;25.30;13.18;;;8.50;59.60;;;;;;4729813;30;20344;-83
2022/01/27 15:29:05;;;;;;;28.02;14.82;;;8.50;60.10;;;;;;4714619;30;20040;-83
2022/01/27 15:31:30;;;;;;;25.23;13.75;;;8.40;59.60;;;;;;4727417;30;20036;-83
2022/01/27 15:33:56;;;;;;;26.30;13.48;;;8.40;59.70;;;;;;4712373;30;20079;-83
2022/01/27 15:36:24;;;;;;;24.35;13.35;;;8.40;59.60;;;;;;4725554;30;20202;-83
2022/01/27 15:38:49;;;;;;;26.42;12.65;;;8.40;59.80;;;;;;4726402;30;20049;-84
2022/01/27 15:41:15;;;;;;;25.98;12.40;;;8.30;59.70;;;;;;4716019;30;20059;-83
2022/01/27 15:43:43;;;;;;;23.23;12.20;;;8.30;58.90;;;;;;4732017;30;20040;-84
2022/01/27 15:46:08;;;;;;;21.83;11.15;;;8.30;59.20;;;;;;4727151;30;20056;-84
2022/01/27 15:48:34;;;;;;;20.58;12.35;;;8.30;58.70;;;;;;4738960;30;20044;-83
2022/01/27 15:51:00;;;;;;;26.10;11.85;;;8.30;58.90;;;;;;4710497;30;20044;-83
2022/01/27 15:53:26;;;;;;;24.73;12.35;;;8.30;59.10;;;;;;4708276;30;20053;-83
2022/01/27 15:55:52;;;;;;;22.63;12.90;;;8.30;59.00;;;;;;4737236;30;20029;-83
2022/01/27 15:58:18;;;;;;;27.98;13.23;;;8.30;59.20;;;;;;4752201;30;20047;-84
2022/01/27 16:00:45;;;;;;;27.83;11.93;;;8.30;59.00;;;;;;4779427;30;20043;-83
2022/01/27 16:03:10;;;;;;;21.10;11.07;;;8.20;58.70;;;;;;4774635;30;20344;-83
2022/01/27 16:05:36;;;;;;;22.50;11.80;;;8.20;58.50;;;;;;4767468;30;20039;-83
2022/01/27 16:08:02;;;;;;;24.77;13.38;;;8.20;58.50;;;;;;4750838;30;20031;-83
2022/01/27 16:10:28;;;;;;;25.23;12.85;;;8.20;58.90;;;;;;4749744;30;20036;-84
2022/01/27 16:12:57;;;;;;;25.95;14.75;;;8.20;58.60;;;;;;4768257;30;20028;-82
2022/01/27 16:15:25;;;;;;;21.58;12.63;;;8.20;59.40;;;;;;4751481;30;20031;-82
2022/01/27 16:17:51;;;;;;;25.02;13.18;;;8.20;60.00;;;;;;4765193;30;20024;-82
2022/01/27 16:20:17;;;;;;;25.33;13.05;;;8.20;59.70;;;;;;4778563;30;20051;-83
2022/01/27 16:22:44;;;;;;;28.50;14.37;;;8.20;59.70;;;;;;4765055;30;20055;-83
2022/01/27 16:25:11;;;;;;;24.98;13.73;;;8.20;59.70;;;;;;4782071;30;20331;-82
2022/01/27 16:27:38;;;;;;;30.23;14.77;;;8.20;60.00;;;;;;4765194;30;20054;-82
2022/01/27 16:30:05;;;;;;;28.85;14.57;;;8.20;60.10;;;;;;4750665;30;20071;-82
2022/01/27 16:32:31;;;;;;;25.17;14.18;;;8.20;60.70;;;;;;4750628;30;20368;-82
2022/01/27 16:34:57;;;;;;;24.77;14.00;;;8.10;60.60;;;;;;4750346;30;20051;-82
2022/01/27 16:37:23;;;;;;;24.55;13.52;;;8.10;60.70;;;;;;4747491;30;20056;-82
2022/01/27 16:39:49;;;;;;;30.35;14.27;;;8.10;60.70;;;;;;4762101;30;20090;-82
2022/01/27 16:42:15;;;;;;;25.77;14.32;;;8.10;60.50;;;;;;4749565;30;20039;-81
2022/01/27 16:44:41;;;;;;;27.60;14.25;;;8.10;60.60;;;;;;4779617;30;20047;-82
2022/01/27 16:47:07;;;;;;;25.65;13.25;;;8.10;60.60;;;;;;4734447;30;20135;-83
2022/01/27 16:49:33;;;;;;;25.67;14.27;;;8.10;60.70;;;;;;4764601;30;20055;-82
2022/01/27 16:51:59;;;;;;;26.38;13.65;;;8.10;60.60;;;;;;4779324;30;20042;-82
2022/01/27 16:54:26;;;;;;;24.65;13.73;;;8.10;61.00;;;;;;4764843;30;20106;-83
2022/01/27 16:56:55;;;;;;;;;;;8.10;61.40;;;;;;4748944;30;20028;-83
2022/01/27 16:59:21;;;;;;;28.55;15.10;;;8.10;61.30;;;;;;4765349;30;19914;-81
2022/01/27 17:01:46;;;;;;;28.02;14.30;;;8.00;61.30;;;;;;4748247;30;20040;-82
2022/01/27 17:04:12;;;;;;;26.45;14.65;;;8.00;61.10;;;;;;4749957;30;20058;-82
2022/01/27 17:06:38;;;;;;;25.52;14.98;;;8.00;61.30;;;;;;4749752;30;20044;-83
2022/01/27 17:09:04;;;;;;;24.80;13.63;;;8.00;61.30;;;;;;4764916;30;20027;-83
2022/01/27 17:11:29;;;;;;;25.15;14.30;;;8.00;60.80;;;;;;4734984;30;20231;-84
2022/01/27 17:13:55;;;;;;;27.35;14.00;;;8.00;60.50;;;;;;4767564;30;20213;-83
2022/01/27 17:16:21;;;;;;;26.42;12.90;;;8.00;60.10;;;;;;4752340;30;20093;-83